Time;durP1;ratioP1;P1;durP2;ratioP2;P2;SDS_P1;SDS_P2;PMS_P1;PMS_P2;Temp;Humidity;BMP_temperature;BMP_pressure;BME280_temperature;BME280_humidity;BME280_pressure;Samples;Min_cycle;Max_cycle;Signal;HPM_P1;HPM_P2
2022/12/12 00:01:54;;;;;;;43.97;23.50;;;;;;;-0.67;100.00;98507.28;5053912;28;20275;-78
2022/12/12 00:04:22;;;;;;;42.03;22.10;;;;;;;-0.66;100.00;98509.00;5055659;28;20200;-79
2022/12/12 00:06:51;;;;;;;48.73;23.50;;;;;;;-0.65;100.00;98499.44;5052801;28;20201;-78
2022/12/12 00:09:22;;;;;;;42.17;22.30;;;;;;;-0.64;100.00;98502.00;5049366;28;20201;-79
2022/12/12 00:11:50;;;;;;;43.90;21.97;;;;;;;-0.63;100.00;98503.69;5053150;28;20267;-79
2022/12/12 00:14:20;;;;;;;45.03;23.30;;;;;;;-0.51;100.00;98499.03;5049183;28;20189;-78
2022/12/12 00:16:49;;;;;;;42.00;22.77;;;;;;;-0.54;100.00;98510.38;5054767;28;20193;-78
2022/12/12 00:19:18;;;;;;;45.40;23.17;;;;;;;-0.54;100.00;98512.97;5055528;28;20197;-78
2022/12/12 00:21:46;;;;;;;43.07;22.83;;;;;;;-0.38;100.00;98500.38;5053729;28;20201;-78
2022/12/12 00:24:16;;;;;;;42.03;21.73;;;;;;;-0.49;100.00;98500.66;5045825;28;20201;-78
2022/12/12 00:26:46;;;;;;;45.63;23.53;;;;;;;-0.50;100.00;98498.97;5054329;28;20199;-78
2022/12/12 00:29:15;;;;;;;45.47;22.80;;;;;;;-0.63;100.00;98503.69;5055482;28;20189;-78
2022/12/12 00:31:45;;;;;;;43.77;23.53;;;;;;;-0.66;100.00;98503.78;5056359;28;20243;-78
2022/12/12 00:34:13;;;;;;;44.90;23.73;;;;;;;-0.95;100.00;98507.22;5065074;28;20190;-77
2022/12/12 00:36:42;;;;;;;45.23;24.03;;;;;;;-0.79;100.00;98510.22;5054476;28;20189;-78
2022/12/12 00:39:11;;;;;;;45.00;22.43;;;;;;;-0.77;100.00;98497.19;5053027;28;20190;-78
2022/12/12 00:41:49;;;;;;;49.43;25.53;;;;;;;-0.70;100.00;98506.50;5050073;28;20275;-79
2022/12/12 00:44:18;;;;;;;45.07;24.00;;;;;;;-0.76;100.00;98493.72;5053226;28;20741;-78
2022/12/12 00:46:47;;;;;;;45.67;22.43;;;;;;;-0.68;100.00;98492.56;5055227;28;20196;-78
2022/12/12 00:49:16;;;;;;;47.40;23.20;;;;;;;-0.46;100.00;98497.16;5013165;28;20277;-78
2022/12/12 00:51:45;;;;;;;46.47;23.87;;;;;;;-0.46;100.00;98497.16;5011413;28;20218;-78
2022/12/12 00:54:13;;;;;;;46.17;22.83;;;;;;;-0.45;100.00;98501.44;5011127;28;20203;-78
2022/12/12 00:56:52;;;;;;;48.90;24.77;;;;;;;-0.50;100.00;98496.38;5013087;28;20205;-79
2022/12/12 00:59:21;;;;;;;45.90;23.27;;;;;;;-0.61;100.00;98501.91;5013443;28;20202;-78
2022/12/12 01:01:50;;;;;;;48.27;23.67;;;;;;;-0.64;100.00;98504.59;5013069;28;20191;-79
2022/12/12 01:04:18;;;;;;;43.20;23.33;;;;;;;-0.64;100.00;98498.53;4962847;28;20675;-78
2022/12/12 01:06:47;;;;;;;42.17;22.80;;;;;;;-0.68;100.00;98504.72;5010786;28;20256;-78
2022/12/12 01:09:15;;;;;;;46.60;22.87;;;;;;;-0.61;100.00;98517.50;5012864;28;20190;-79
2022/12/12 01:11:46;;;;;;;46.13;24.73;;;;;;;-0.51;100.00;98510.28;5010004;28;20250;-79
2022/12/12 01:14:18;;;;;;;47.10;24.53;;;;;;;-0.47;100.00;98516.25;5037347;28;20228;-78
2022/12/12 01:16:48;;;;;;;44.57;23.27;;;;;;;-0.60;100.00;98521.78;5012643;28;20614;-78
2022/12/12 01:19:18;;;;;;;46.00;23.50;;;;;;;-0.65;100.00;98508.09;5012971;28;20203;-79
2022/12/12 01:21:47;;;;;;;42.87;23.57;;;;;;;-0.63;100.00;98516.69;5011759;28;20202;-78
2022/12/12 01:24:15;;;;;;;47.10;25.43;;;;;;;-0.57;100.00;98517.44;5007408;28;20206;-78
2022/12/12 01:26:44;;;;;;;42.97;23.60;;;;;;;-0.60;100.00;98513.16;5012859;28;20646;-78
2022/12/12 01:29:20;;;;;;;46.47;23.93;;;;;;;-0.63;100.00;98523.66;5009166;28;20289;-78
2022/12/12 01:31:52;;;;;;;45.57;23.27;;;;;;;-0.61;100.00;98525.28;4987622;28;20226;-79
2022/12/12 01:34:20;;;;;;;45.03;24.70;;;;;;;-0.63;100.00;98519.28;5004866;28;20201;-78
2022/12/12 01:36:49;;;;;;;47.23;24.10;;;;;;;-0.48;100.00;98522.31;5051252;28;20628;-78
2022/12/12 01:39:17;;;;;;;43.10;24.07;;;;;;;-0.44;100.00;98517.00;5045698;28;20220;-79
2022/12/12 01:41:46;;;;;;;50.63;24.90;;;;;;;-0.60;100.00;98527.00;5046833;28;20197;-78
2022/12/12 01:44:44;;;;;;;44.83;23.57;;;;;;;-0.59;100.00;98523.50;5046539;28;20225;-78
2022/12/12 01:47:14;;;;;;;45.87;23.50;;;;;;;-0.63;100.00;98524.50;5049244;28;20193;-78
2022/12/12 01:49:45;;;;;;;47.37;24.90;;;;;;;-0.59;100.00;98527.84;5045564;28;20328;-79
2022/12/12 01:52:17;;;;;;;43.57;22.77;;;;;;;-0.59;100.00;98525.25;5047298;28;20232;-78
2022/12/12 01:54:49;;;;;;;47.00;23.43;;;;;;;-0.63;100.00;98527.09;5050369;28;20208;-78
2022/12/12 01:57:25;;;;;;;47.73;24.93;;;;;;;-0.61;100.00;98530.50;5046574;28;20205;-79
2022/12/12 01:59:55;;;;;;;47.63;24.43;;;;;;;-0.62;100.00;98536.59;5045254;28;20246;-79
2022/12/12 02:02:24;;;;;;;46.33;24.03;;;;;;;-0.66;100.00;98527.19;5044507;28;20196;-78
2022/12/12 02:04:54;;;;;;;42.07;22.77;;;;;;;-0.51;100.00;98540.63;5046871;28;20193;-78
2022/12/12 02:07:24;;;;;;;44.47;23.50;;;;;;;-0.64;100.00;98534.94;5050743;28;20246;-79
2022/12/12 02:09:54;;;;;;;43.10;23.47;;;;;;;-0.75;100.00;98530.06;5055321;28;20200;-79
2022/12/12 02:12:22;;;;;;;44.97;23.60;;;;;;;-0.59;100.00;98539.09;5055136;28;20220;-78
2022/12/12 02:14:53;;;;;;;46.17;23.83;;;;;;;-0.64;100.00;98537.53;5054717;28;20242;-78
2022/12/12 02:18:01;;;;;;;46.53;23.77;;;;;;;-0.76;100.00;98533.56;5032628;28;20193;-78
2022/12/12 02:20:46;;;;;;;44.77;22.73;;;;;;;-0.60;100.00;98540.00;5035294;28;20203;-78
2022/12/12 02:23:50;;;;;;;45.33;23.87;;;;;;;-0.61;100.00;98534.84;5053125;28;20243;-78
2022/12/12 02:26:58;;;;;;;45.40;23.60;;;;;;;-0.69;100.00;98539.41;5053443;28;20204;-78
2022/12/12 02:29:59;;;;;;;44.40;23.13;;;;;;;-0.71;100.00;98541.22;5051785;28;20204;-78
2022/12/12 02:32:35;;;;;;;46.20;23.83;;;;;;;-0.73;100.00;98530.00;5053180;28;20231;-78
2022/12/12 02:35:08;;;;;;;45.97;24.10;;;;;;;-0.70;100.00;98535.97;5049335;28;20672;-78
2022/12/12 02:37:48;;;;;;;45.30;23.40;;;;;;;-0.66;100.00;98541.94;5052029;28;20196;-79
2022/12/12 02:40:23;;;;;;;49.40;25.07;;;;;;;-0.78;100.00;98543.13;5047736;28;20193;-78
2022/12/12 02:42:59;;;;;;;49.03;23.77;;;;;;;-0.59;100.00;98539.09;5050397;28;20196;-78
2022/12/12 02:45:39;;;;;;;51.60;25.37;;;;;;;-0.74;100.00;98544.75;5051694;28;20205;-79
2022/12/12 02:48:17;;;;;;;52.97;26.20;;;;;;;-0.85;100.00;98545.97;5050680;28;20231;-78
2022/12/12 02:50:47;;;;;;;51.73;25.87;;;;;;;-0.82;100.00;98549.31;5050589;28;20212;-78
2022/12/12 02:53:18;;;;;;;48.13;24.87;;;;;;;-0.68;100.00;98543.72;5026663;28;20283;-79
2022/12/12 02:55:48;;;;;;;54.40;25.97;;;;;;;-0.77;100.00;98547.47;5027426;28;20312;-78
2022/12/12 02:58:18;;;;;;;49.30;26.43;;;;;;;-0.78;100.00;98542.28;5029619;28;20292;-79
2022/12/12 03:01:09;;;;;;;53.93;27.00;;;;;;;-0.75;100.00;98543.06;5032245;28;20240;-78
2022/12/12 03:09:59;;;;;;;51.70;26.00;;;;;;;-0.90;100.00;98557.31;5030517;28;20194;-79
2022/12/12 03:12:37;;;;;;;52.60;26.53;;;;;;;-0.84;100.00;98556.31;5032049;28;20268;-78
2022/12/12 03:15:14;;;;;;;49.67;25.80;;;;;;;-0.79;100.00;98557.03;5030788;28;20197;-78
2022/12/12 03:17:49;;;;;;;54.67;26.63;;;;;;;-0.74;100.00;98562.97;4994586;28;20196;-78
2022/12/12 03:20:26;;;;;;;50.13;25.73;;;;;;;-0.67;100.00;98561.03;5057791;28;20204;-78
2022/12/12 03:23:00;;;;;;;52.30;25.80;;;;;;;-0.77;100.00;98563.06;4987479;28;20198;-78
2022/12/12 03:25:37;;;;;;;53.17;27.23;;;;;;;-0.84;100.00;98558.06;4987987;28;20215;-79
2022/12/12 03:28:09;;;;;;;54.87;27.57;;;;;;;-0.72;100.00;98555.97;4988451;28;20307;-78
2022/12/12 03:30:41;;;;;;;51.27;26.33;;;;;;;-0.67;100.00;98554.09;4989770;28;20654;-80
2022/12/12 03:33:18;;;;;;;56.03;28.57;;;;;;;-0.59;100.00;98559.06;4987228;28;20301;-78
2022/12/12 03:36:00;;;;;;;48.10;25.63;;;;;;;-0.62;100.00;98556.56;4988311;28;20202;-78
2022/12/12 03:38:33;;;;;;;55.03;26.73;;;;;;;-0.68;100.00;98554.13;4991185;28;20191;-78
2022/12/12 03:41:05;;;;;;;51.83;26.40;;;;;;;-0.68;100.00;98551.50;5017510;28;20656;-78
2022/12/12 03:43:39;;;;;;;52.83;27.00;;;;;;;-0.66;100.00;98558.41;5047864;28;20251;-78
2022/12/12 03:46:15;;;;;;;56.10;26.93;;;;;;;-0.77;100.00;98555.25;5052238;28;20700;-79
2022/12/12 03:48:49;;;;;;;53.00;25.90;;;;;;;-0.61;100.00;98556.50;5053036;28;20189;-78
2022/12/12 03:51:23;;;;;;;51.03;26.13;;;;;;;-0.77;100.00;98559.56;5050495;28;20209;-78
2022/12/12 03:53:58;;;;;;;48.07;26.43;;;;;;;-0.66;100.00;98557.53;5052103;28;20228;-79
2022/12/12 03:56:35;;;;;;;53.20;27.00;;;;;;;-0.54;100.00;98558.94;5048694;28;20243;-79
2022/12/12 03:59:07;;;;;;;47.70;25.00;;;;;;;-0.59;100.00;98556.44;5050578;28;20231;-79
2022/12/12 04:01:41;;;;;;;55.53;25.73;;;;;;;-0.51;100.00;98556.22;5053519;28;20200;-78
2022/12/12 04:04:16;;;;;;;55.23;26.03;;;;;;;-0.65;100.00;98560.09;5055997;28;20658;-78
2022/12/12 04:06:53;;;;;;;48.77;24.87;;;;;;;-0.84;100.00;98553.72;5051994;28;20200;-78
2022/12/12 04:15:24;;;;;;;52.30;27.40;;;;;;;-0.87;100.00;98564.19;5054122;28;20204;-78
2022/12/12 04:18:02;;;;;;;56.20;26.53;;;;;;;-0.82;100.00;98562.31;5016479;28;20353;-79
2022/12/12 04:23:37;;;;;;;54.57;27.30;;;;;;;-0.80;100.00;98564.88;5009847;28;20249;-78
2022/12/12 04:29:11;;;;;;;55.93;26.97;;;;;;;-0.72;100.00;98581.09;5009682;28;20194;-79
2022/12/12 04:31:46;;;;;;;61.80;28.77;;;;;;;-0.79;100.00;98580.41;4917375;29;20249;-79
2022/12/12 04:34:21;;;;;;;54.07;26.13;;;;;;;-0.76;100.00;98582.09;4917107;29;20280;-78
2022/12/12 04:36:50;;;;;;;60.47;28.60;;;;;;;-0.75;100.00;98578.59;4963835;28;20199;-79
2022/12/12 04:39:22;;;;;;;56.60;26.97;;;;;;;-0.70;100.00;98590.56;4968534;28;20294;-78
2022/12/12 04:41:52;;;;;;;56.67;27.80;;;;;;;-0.64;100.00;98584.34;4974673;28;20199;-79
2022/12/12 04:44:24;;;;;;;58.73;28.97;;;;;;;-0.59;100.00;98587.66;4968320;28;20268;-78
2022/12/12 04:46:57;;;;;;;60.97;28.40;;;;;;;-0.72;100.00;98586.31;4973772;28;20259;-78
2022/12/12 04:49:30;;;;;;;60.30;28.90;;;;;;;-0.62;100.00;98588.59;4959050;28;20280;-78
2022/12/12 04:52:03;;;;;;;55.10;27.40;;;;;;;-0.61;100.00;98590.31;5009791;28;20257;-78
2022/12/12 04:54:41;;;;;;;61.03;28.73;;;;;;;-0.62;100.00;98591.19;5012642;28;20284;-78
2022/12/12 04:57:15;;;;;;;74.53;35.83;;;;;;;-0.67;100.00;98594.84;5012005;28;20210;-78
2022/12/12 04:59:45;;;;;;;66.77;34.47;;;;;;;-0.64;100.00;98597.34;5012333;28;20229;-78
2022/12/12 05:02:22;;;;;;;59.40;28.20;;;;;;;-0.71;100.00;98599.25;5008530;28;20246;-79
2022/12/12 05:04:58;;;;;;;56.33;27.00;;;;;;;-0.71;100.00;98601.84;5011664;28;20198;-78
2022/12/12 05:07:33;;;;;;;55.70;26.63;;;;;;;-0.74;100.00;98601.09;5039041;28;20188;-79
2022/12/12 05:10:12;;;;;;;52.63;27.37;;;;;;;-0.85;100.00;98597.94;5030251;28;20197;-78
2022/12/12 05:12:45;;;;;;;57.73;28.07;;;;;;;-0.87;100.00;98597.97;5027742;28;20680;-79
2022/12/12 05:15:14;;;;;;;54.93;28.33;;;;;;;-0.77;100.00;98599.44;5031125;28;20194;-78
2022/12/12 05:17:45;;;;;;;53.67;27.47;;;;;;;-0.78;100.00;98604.66;5031061;28;20228;-79
2022/12/12 05:20:15;;;;;;;62.10;28.80;;;;;;;-0.79;100.00;98609.00;5028932;28;20198;-78
2022/12/12 05:22:44;;;;;;;58.03;28.70;;;;;;;-0.73;100.00;98608.84;5028683;28;20217;-79
2022/12/12 05:25:16;;;;;;;62.67;30.13;;;;;;;-0.69;100.00;98610.47;5027630;28;20224;-78
2022/12/12 05:27:44;;;;;;;63.83;29.23;;;;;;;-0.73;100.00;98600.19;5035902;28;20852;-78
2022/12/12 05:30:13;;;;;;;60.83;28.47;;;;;;;-0.71;100.00;98609.66;5074500;28;20192;-78
2022/12/12 05:32:42;;;;;;;57.57;27.53;;;;;;;-0.68;100.00;98604.38;5074107;28;20195;-78
2022/12/12 05:35:12;;;;;;;60.10;27.87;;;;;;;-0.66;100.00;98601.75;5069048;28;20220;-78
2022/12/12 05:37:41;;;;;;;56.53;28.03;;;;;;;-0.67;100.00;98600.91;5067235;28;20192;-78
2022/12/12 05:40:19;;;;;;;50.17;26.60;;;;;;;-0.52;100.00;98601.34;5070825;28;20251;-78
2022/12/12 05:42:48;;;;;;;51.57;27.20;;;;;;;-0.57;100.00;98608.44;5072226;28;20220;-79
2022/12/12 05:45:16;;;;;;;60.33;28.33;;;;;;;-0.61;100.00;98611.09;5074078;28;20189;-78
2022/12/12 05:47:45;;;;;;;58.90;27.83;;;;;;;-0.63;100.00;98612.91;5066808;28;20184;-78
2022/12/12 05:50:14;;;;;;;52.70;26.77;;;;;;;-0.62;100.00;98608.56;5065226;28;20193;-78
2022/12/12 05:52:43;;;;;;;55.20;28.10;;;;;;;-0.65;100.00;98608.66;5073679;28;20193;-79
2022/12/12 05:55:12;;;;;;;56.23;28.43;;;;;;;-0.66;100.00;98618.19;5073754;28;20189;-78
2022/12/12 05:57:43;;;;;;;52.60;26.37;;;;;;;-0.68;100.00;98617.38;5067403;28;20636;-78
2022/12/12 06:00:13;;;;;;;55.87;27.63;;;;;;;-0.67;100.00;98615.66;4990690;28;20203;-78
2022/12/12 06:02:41;;;;;;;62.03;29.60;;;;;;;-0.79;100.00;98621.16;4989785;28;20199;-78
2022/12/12 06:05:11;;;;;;;56.53;28.27;;;;;;;-0.77;100.00;98625.44;4992485;28;20709;-78
2022/12/12 06:07:40;;;;;;;55.03;26.57;;;;;;;-0.80;100.00;98620.31;4951355;28;20197;-79
2022/12/12 06:10:10;;;;;;;53.43;26.40;;;;;;;-0.77;100.00;98622.84;4950446;29;20251;-79
2022/12/12 06:12:45;;;;;;;53.27;26.93;;;;;;;-0.74;100.00;98620.16;4949595;28;20734;-78
2022/12/12 06:15:14;;;;;;;62.43;28.40;;;;;;;-0.79;100.00;98623.75;4950700;28;20223;-78
2022/12/12 06:17:45;;;;;;;53.93;27.30;;;;;;;-0.72;100.00;98620.97;4965175;28;20194;-78
2022/12/12 06:20:14;;;;;;;57.50;27.77;;;;;;;-0.70;100.00;98626.97;5024754;28;20201;-79
2022/12/12 06:22:42;;;;;;;57.57;29.27;;;;;;;-0.72;100.00;98630.50;5021370;28;20202;-78
2022/12/12 06:25:14;;;;;;;55.17;27.30;;;;;;;-0.68;100.00;98624.31;5029725;28;20272;-78
2022/12/12 06:27:44;;;;;;;63.37;30.20;;;;;;;-0.69;100.00;98630.41;5024720;28;20197;-78
2022/12/12 06:30:13;;;;;;;63.37;30.13;;;;;;;-0.70;100.00;98634.75;5022268;28;20201;-80
2022/12/12 06:32:42;;;;;;;58.67;30.00;;;;;;;-0.69;100.00;98633.00;5058822;28;20345;-80
2022/12/12 06:35:11;;;;;;;60.40;28.93;;;;;;;-0.64;100.00;98642.41;5063913;28;20216;-80
2022/12/12 06:37:40;;;;;;;56.80;28.00;;;;;;;-0.61;100.00;98634.50;5068859;28;20204;-79
2022/12/12 06:40:09;;;;;;;56.80;28.20;;;;;;;-0.63;100.00;98641.50;5073012;28;20192;-79
2022/12/12 06:42:38;;;;;;;60.47;27.47;;;;;;;-0.65;100.00;98643.31;5067058;28;20191;-79
2022/12/12 06:45:17;;;;;;;65.93;31.17;;;;;;;-0.59;100.00;98640.50;5053794;28;20200;-79
2022/12/12 06:47:45;;;;;;;60.03;28.90;;;;;;;-0.52;100.00;98642.97;5051290;28;20220;-79
2022/12/12 06:50:14;;;;;;;59.67;29.13;;;;;;;-0.52;100.00;98641.22;5040516;28;20205;-79
2022/12/12 06:52:50;;;;;;;55.83;28.63;;;;;;;-0.64;100.00;98642.41;4970880;28;20286;-79
2022/12/12 06:55:19;;;;;;;63.77;28.77;;;;;;;-0.59;100.00;98647.47;4969399;28;20227;-79
2022/12/12 06:57:47;;;;;;;55.87;27.47;;;;;;;-0.57;100.00;98648.31;4966290;28;20192;-79
2022/12/12 07:00:18;;;;;;;60.90;28.17;;;;;;;-0.62;100.00;98644.97;4972179;28;20263;-80
2022/12/12 07:02:48;;;;;;;59.60;27.93;;;;;;;-0.70;100.00;98646.91;4970529;28;20200;-80
2022/12/12 07:05:17;;;;;;;57.83;28.97;;;;;;;-0.78;100.00;98652.31;4967489;28;20283;-79
2022/12/12 07:07:45;;;;;;;55.63;28.60;;;;;;;-0.92;100.00;98651.84;4962360;28;20228;-79
2022/12/12 07:10:16;;;;;;;58.53;28.07;;;;;;;-0.90;100.00;98653.50;4985369;28;20246;-79
2022/12/12 07:12:48;;;;;;;61.10;29.40;;;;;;;-0.91;100.00;98654.38;5048536;28;20289;-79
2022/12/12 07:15:28;;;;;;;56.67;28.03;;;;;;;-0.84;100.00;98662.88;5046101;28;20221;-79
2022/12/12 07:17:58;;;;;;;56.73;27.60;;;;;;;-1.00;100.00;98661.56;5047566;28;20251;-79
2022/12/12 07:20:27;;;;;;;53.90;27.90;;;;;;;-1.03;100.00;98665.09;5047076;28;20203;-79
2022/12/12 07:22:56;;;;;;;58.47;27.43;;;;;;;-1.08;100.00;98660.91;5049978;28;20240;-79
2022/12/12 07:25:24;;;;;;;56.10;27.80;;;;;;;-1.15;100.00;98662.81;5048588;28;20195;-79
2022/12/12 07:27:54;;;;;;;56.63;27.43;;;;;;;-1.17;100.00;98664.56;5049130;28;20189;-80
2022/12/12 07:30:23;;;;;;;51.90;25.63;;;;;;;-1.22;100.00;98669.91;5052257;28;20284;-79
2022/12/12 07:32:53;;;;;;;54.20;26.47;;;;;;;-1.37;100.00;98667.66;5043153;28;20197;-79
2022/12/12 07:35:22;;;;;;;53.40;26.47;;;;;;;-1.38;100.00;98673.75;4943279;28;20269;-79
2022/12/12 07:37:50;;;;;;;58.27;29.50;;;;;;;-1.40;100.00;98675.53;4990415;28;20879;-79
2022/12/12 07:40:19;;;;;;;50.83;26.57;;;;;;;-1.38;100.00;98680.69;4992455;28;20619;-79
2022/12/12 07:42:47;;;;;;;55.77;26.67;;;;;;;-1.39;100.00;98677.25;4987223;28;20203;-80
2022/12/12 07:45:16;;;;;;;53.07;25.50;;;;;;;-1.51;100.00;98678.38;5009484;28;20198;-79
2022/12/12 07:47:45;;;;;;;52.00;26.83;;;;;;;-1.59;100.00;98687.25;4998355;28;20209;-79
2022/12/12 07:50:17;;;;;;;54.47;26.60;;;;;;;-1.62;100.00;98692.50;4961637;28;20337;-80
2022/12/12 07:52:46;;;;;;;51.57;26.13;;;;;;;-1.74;100.00;98684.13;4973711;28;20197;-79
2022/12/12 07:55:15;;;;;;;58.67;27.47;;;;;;;-1.67;100.00;98684.81;5047993;28;20212;-79
2022/12/12 07:57:43;;;;;;;54.50;25.77;;;;;;;-1.71;100.00;98682.34;5048308;28;20217;-79
2022/12/12 08:00:13;;;;;;;49.60;24.77;;;;;;;-1.65;100.00;98680.44;5053350;28;20644;-79
2022/12/12 08:02:41;;;;;;;52.80;27.17;;;;;;;-1.84;100.00;98690.38;5055953;28;20213;-79
2022/12/12 08:05:10;;;;;;;54.37;26.10;;;;;;;-1.93;100.00;98688.00;5049680;28;20197;-79
2022/12/12 08:07:41;;;;;;;48.60;23.57;;;;;;;-1.81;100.00;98695.50;5050468;28;20193;-79
2022/12/12 08:10:12;;;;;;;53.00;27.03;;;;;;;-1.79;100.00;98693.72;5055707;28;20203;-79
2022/12/12 08:12:40;;;;;;;53.23;25.73;;;;;;;-1.68;100.00;98697.84;5051509;28;20208;-79
2022/12/12 08:15:16;;;;;;;54.80;25.40;;;;;;;-1.74;100.00;98693.63;5052587;28;20224;-79
2022/12/12 08:17:45;;;;;;;54.23;24.67;;;;;;;-1.70;100.00;98695.28;5050814;28;20196;-79
2022/12/12 08:20:15;;;;;;;51.13;24.83;;;;;;;-1.67;100.00;98702.13;5050608;28;20196;-79
2022/12/12 08:22:48;;;;;;;95.17;42.23;;;;;;;-1.65;100.00;98692.56;5050185;28;20201;-79
2022/12/12 08:25:17;;;;;;;130.37;63.60;;;;;;;-1.58;100.00;98696.75;5050087;28;20193;-79
2022/12/12 08:27:46;;;;;;;74.30;33.23;;;;;;;-1.49;100.00;98694.78;5052382;28;20205;-79
2022/12/12 08:30:15;;;;;;;62.53;27.00;;;;;;;-1.50;100.00;98700.88;5052823;28;20205;-79
2022/12/12 08:32:43;;;;;;;95.90;28.13;;;;;;;-1.39;100.00;98704.97;5045938;28;20189;-79
2022/12/12 08:35:12;;;;;;;109.03;30.43;;;;;;;-1.40;100.00;98698.91;5051561;28;20220;-79
2022/12/12 08:37:43;;;;;;;97.77;32.63;;;;;;;-1.39;100.00;98698.03;5046107;28;20195;-79
2022/12/12 08:40:15;;;;;;;186.20;40.13;;;;;;;-1.50;100.00;98711.25;5048332;28;20201;-79
2022/12/12 08:42:44;;;;;;;82.43;37.80;;;;;;;-1.39;100.00;98711.00;5055435;28;20201;-81
2022/12/12 08:45:17;;;;;;;168.17;35.53;;;;;;;-1.51;100.00;98708.69;5070081;28;20203;-79
2022/12/12 08:47:45;;;;;;;107.17;34.10;;;;;;;-1.57;100.00;98711.41;5030956;28;20239;-78
2022/12/12 08:50:13;;;;;;;161.87;36.50;;;;;;;-1.68;100.00;98714.25;5029315;28;20197;-79
2022/12/12 08:52:43;;;;;;;86.77;30.93;;;;;;;-1.67;100.00;98715.13;5033178;28;20545;-79
2022/12/12 08:55:15;;;;;;;108.07;32.80;;;;;;;-1.57;100.00;98716.63;5033032;28;20217;-79
2022/12/12 08:57:44;;;;;;;113.63;31.60;;;;;;;-1.45;100.00;98729.31;5030902;28;20189;-79
2022/12/12 09:00:14;;;;;;;152.07;33.67;;;;;;;-1.53;100.00;98734.72;5032832;28;20227;-79
2022/12/12 09:02:42;;;;;;;154.83;36.47;;;;;;;-1.40;100.00;98735.28;4992548;28;20201;-80
2022/12/12 09:05:11;;;;;;;139.67;35.33;;;;;;;-1.31;100.00;98736.81;4989689;28;20202;-79
2022/12/12 09:07:40;;;;;;;114.37;34.30;;;;;;;-1.24;100.00;98740.97;4989567;28;20207;-79
2022/12/12 09:10:09;;;;;;;96.50;31.83;;;;;;;-1.18;100.00;98751.22;4987215;28;20284;-79
2022/12/12 09:12:39;;;;;;;84.53;34.70;;;;;;;-1.04;100.00;98751.75;4997280;28;20194;-79
2022/12/12 09:15:10;;;;;;;83.07;34.63;;;;;;;-1.04;100.00;98749.16;5010237;28;20223;-79
2022/12/12 09:17:39;;;;;;;76.30;34.73;;;;;;;-0.97;100.00;98742.91;5010012;28;20205;-79
2022/12/12 09:20:10;;;;;;;76.67;35.40;;;;;;;-0.94;100.00;98747.19;5010214;28;20253;-79
2022/12/12 09:22:38;;;;;;;74.20;34.27;;;;;;;-0.82;100.00;98749.47;5012799;28;20197;-79
2022/12/12 09:25:08;;;;;;;75.80;34.27;;;;;;;-0.70;100.00;98746.56;5005930;28;20245;-79
2022/12/12 09:27:40;;;;;;;74.37;35.03;;;;;;;-0.76;100.00;98745.88;5046723;28;20258;-79
2022/12/12 09:30:09;;;;;;;83.10;34.13;;;;;;;-1.18;100.00;98756.41;5068954;28;20188;-79
2022/12/12 09:32:38;;;;;;;63.63;28.20;;;;;;;-1.19;100.00;98752.94;5074104;28;20184;-79
2022/12/12 09:35:07;;;;;;;70.77;30.83;;;;;;;-1.03;100.00;98757.81;5062944;28;20216;-79
2022/12/12 09:37:35;;;;;;;70.93;29.47;;;;;;;-0.91;100.00;98762.69;5070025;28;20184;-80
2022/12/12 09:40:05;;;;;;;57.07;26.50;;;;;;;-0.86;100.00;98760.84;5070583;28;20238;-79
2022/12/12 09:42:35;;;;;;;68.73;29.07;;;;;;;-0.82;100.00;98770.28;5012124;28;20194;-79
2022/12/12 09:45:09;;;;;;;64.07;30.47;;;;;;;-1.23;100.00;98774.72;5009417;28;20261;-79
2022/12/12 09:47:43;;;;;;;60.97;26.40;;;;;;;-1.40;100.00;98776.81;4992436;28;20203;-79
2022/12/12 09:50:18;;;;;;;59.77;25.47;;;;;;;-1.10;100.00;98784.81;4985390;28;20249;-79
2022/12/12 09:52:47;;;;;;;53.23;24.37;;;;;;;-0.96;100.00;98774.97;4989779;28;20316;-79
2022/12/12 09:55:38;;;;;;;54.67;23.87;;;;;;;-0.89;100.00;98768.69;4986135;28;20258;-79
2022/12/12 09:58:17;;;;;;;54.53;24.20;;;;;;;-0.60;100.00;98775.78;4988895;28;20238;-77
2022/12/12 10:00:52;;;;;;;56.57;25.90;;;;;;;-0.67;100.00;98772.50;5011918;28;20218;-80
2022/12/12 10:03:37;;;;;;;58.63;25.43;;;;;;;-0.40;100.00;98770.06;5028538;28;20197;-79
2022/12/12 10:06:11;;;;;;;53.73;23.93;;;;;;;-0.40;100.00;98768.31;5027862;28;20209;-79
2022/12/12 10:09:20;;;;;;;50.83;23.97;;;;;;;-0.40;100.00;98757.91;4972774;28;20654;-79
2022/12/12 10:11:53;;;;;;;49.77;21.63;;;;;;;-0.58;100.00;98766.19;4981904;28;20202;-80
2022/12/12 10:14:31;;;;;;;48.23;21.57;;;;;;;-0.93;100.00;98762.75;5004103;28;20290;-77
2022/12/12 10:17:07;;;;;;;43.37;20.77;;;;;;;-0.87;100.00;98767.81;5009146;28;20677;-79
2022/12/12 10:19:47;;;;;;;48.20;21.60;;;;;;;-0.90;100.00;98767.84;5004946;28;20201;-79
2022/12/12 10:22:26;;;;;;;44.67;22.80;;;;;;;-0.71;100.00;98762.22;5007455;28;20197;-79
2022/12/12 10:25:03;;;;;;;42.20;22.23;;;;;;;-0.65;100.00;98756.88;5009949;28;20248;-79
2022/12/12 10:27:32;;;;;;;50.97;22.50;;;;;;;-0.62;100.00;98768.03;5052947;28;20200;-79
2022/12/12 10:30:10;;;;;;;42.67;19.60;;;;;;;-0.56;100.00;98761.84;5067950;28;20646;-80
2022/12/12 10:32:52;;;;;;;48.43;21.27;;;;;;;-0.73;100.00;98766.59;5069230;28;20249;-79
2022/12/12 10:35:26;;;;;;;43.10;20.37;;;;;;;-0.55;100.00;98760.09;5072011;28;20192;-79
2022/12/12 10:38:06;;;;;;;45.17;21.33;;;;;;;-0.53;100.00;98758.28;5021556;28;20191;-78
2022/12/12 10:40:49;;;;;;;47.30;23.73;;;;;;;-0.53;100.00;98756.53;5071484;28;20245;-79
2022/12/12 10:43:23;;;;;;;38.83;20.53;;;;;;;-0.31;100.00;98757.69;5067267;28;20467;-79
2022/12/12 10:46:08;;;;;;;38.83;21.03;;;;;;;-0.88;100.00;98754.81;5073132;28;20203;-79
2022/12/12 10:48:39;;;;;;;41.07;19.87;;;;;;;-1.23;100.00;98756.53;5068524;28;20192;-79
2022/12/12 10:51:11;;;;;;;40.93;19.63;;;;;;;-1.25;100.00;98760.06;4987503;28;20195;-79
2022/12/12 10:53:41;;;;;;;43.60;18.60;;;;;;;-1.04;100.00;98769.94;4988945;28;20210;-79
2022/12/12 10:56:19;;;;;;;45.97;21.10;;;;;;;-1.02;100.00;98767.31;4989026;28;20689;-79
2022/12/12 10:58:54;;;;;;;40.77;20.20;;;;;;;-1.13;100.00;98777.09;4914438;29;20201;-79
2022/12/12 11:01:28;;;;;;;41.47;20.93;;;;;;;-1.41;100.00;98762.13;4909386;29;20282;-79
2022/12/12 11:04:23;;;;;;;47.43;24.67;;;;;;;-1.27;100.00;98762.66;4913247;29;20216;-79
2022/12/12 11:06:55;;;;;;;46.90;27.40;;;;;;;-1.04;100.00;98767.34;4876715;29;20261;-79
2022/12/12 11:09:27;;;;;;;45.40;23.43;;;;;;;-0.71;100.00;98760.47;4890640;29;20233;-79
2022/12/12 11:11:59;;;;;;;41.30;19.47;;;;;;;-0.54;100.00;98767.84;4909158;29;20205;-79
2022/12/12 11:14:34;;;;;;;41.83;20.43;;;;;;;-0.43;100.00;98760.59;4912816;29;20253;-79
2022/12/12 11:17:05;;;;;;;39.93;20.40;;;;;;;-0.37;100.00;98763.06;4910674;29;20272;-79
2022/12/12 11:19:39;;;;;;;43.37;21.00;;;;;;;-0.26;100.00;98767.97;4906313;29;20673;-79
2022/12/12 11:22:13;;;;;;;42.97;20.47;;;;;;;-0.21;100.00;98755.69;4914613;29;20209;-79
2022/12/12 11:24:45;;;;;;;42.33;20.40;;;;;;;-0.30;100.00;98754.19;4932705;28;20195;-79
2022/12/12 11:27:23;;;;;;;41.80;18.83;;;;;;;-0.35;100.00;98755.22;4967111;28;20227;-79
2022/12/12 11:29:55;;;;;;;38.20;18.90;;;;;;;-0.10;100.00;98742.38;4968667;28;20639;-79
2022/12/12 11:32:26;;;;;;;36.50;19.13;;;;;;;-0.24;100.00;98749.72;4969575;28;20258;-79
2022/12/12 11:35:00;;;;;;;37.00;18.37;;;;;;;-0.09;100.00;98749.31;4964920;28;20206;-79
2022/12/12 11:37:37;;;;;;;41.17;18.93;;;;;;;-0.08;100.00;98745.81;5066616;28;20247;-79
2022/12/12 11:40:20;;;;;;;47.00;25.50;;;;;;;-0.06;100.00;98742.25;5066387;28;20241;-79
2022/12/12 11:42:49;;;;;;;37.13;18.27;;;;;;;0.06;100.00;98735.00;5032067;28;20239;-79
2022/12/12 11:45:24;;;;;;;37.47;19.40;;;;;;;-0.13;100.00;98735.50;5067276;28;20196;-79
2022/12/12 11:47:54;;;;;;;34.97;20.00;;;;;;;0.07;100.00;98731.50;5068929;28;20195;-79
2022/12/12 11:50:27;;;;;;;38.77;19.83;;;;;;;0.07;100.00;98724.53;4985103;28;20195;-79
2022/12/12 11:53:00;;;;;;;41.37;20.97;;;;;;;-0.01;100.00;98721.28;4987493;28;20233;-79